Time;durP1;ratioP1;P1;durP2;ratioP2;P2;SDS_P1;SDS_P2;PMS_P1;PMS_P2;Temp;Humidity;BMP_temperature;BMP_pressure;BME280_temperature;BME280_humidity;BME280_pressure;Samples;Min_cycle;Max_cycle;Signal;HPM_P1;HPM_P2
2023/01/30 00:00:53;;;;;;;32.08;19.20;;;;;;;-1.22;100.00;93337.72;5069763;28;20501;-71
2023/01/30 00:03:20;;;;;;;28.80;18.23;;;;;;;-1.25;100.00;93333.72;5069943;28;20102;-71
2023/01/30 00:05:47;;;;;;;24.30;15.32;;;;;;;-1.62;100.00;93324.34;5069621;28;20098;-71
2023/01/30 00:08:14;;;;;;;30.08;17.40;;;;;;;-1.39;100.00;93334.16;5069533;28;20040;-71
2023/01/30 00:10:40;;;;;;;27.55;17.33;;;;;;;-1.36;100.00;93327.13;5069637;28;20052;-71
2023/01/30 00:13:07;;;;;;;24.80;16.15;;;;;;;-1.57;100.00;93328.97;5069964;28;20056;-71
2023/01/30 00:15:35;;;;;;;24.48;15.88;;;;;;;-1.51;100.00;93336.00;5069538;28;20094;-71
2023/01/30 00:18:02;;;;;;;26.30;16.52;;;;;;;-1.56;100.00;93330.56;5069462;28;20460;-71
2023/01/30 00:20:29;;;;;;;27.58;17.38;;;;;;;-1.68;100.00;93327.38;5069321;28;20044;-71
2023/01/30 00:22:57;;;;;;;25.08;15.00;;;;;;;-1.75;100.00;93334.69;5069454;28;20049;-70
2023/01/30 00:25:24;;;;;;;25.48;16.55;;;;;;;-1.62;100.00;93327.66;5069017;28;20499;-71
2023/01/30 00:27:51;;;;;;;26.98;16.13;;;;;;;-1.67;100.00;93329.00;5069125;28;20098;-71
2023/01/30 00:30:17;;;;;;;25.30;15.80;;;;;;;-1.51;100.00;93328.44;5069662;28;20041;-70
2023/01/30 00:32:46;;;;;;;25.42;16.23;;;;;;;-1.60;100.00;93292.25;5069227;28;20108;-71
2023/01/30 00:35:12;;;;;;;30.58;18.25;;;;;;;-1.29;100.00;93327.38;5069108;28;20037;-71
2023/01/30 00:37:39;;;;;;;29.45;17.48;;;;;;;-1.21;100.00;93322.47;5069254;28;20285;-71
2023/01/30 00:40:07;;;;;;;24.95;15.23;;;;;;;-1.44;100.00;93332.03;5069439;28;20090;-71
2023/01/30 00:48:03;;;;;;;24.77;15.55;;;;;;;-1.38;100.00;93320.63;5068541;28;20467;-70
2023/01/30 00:50:41;;;;;;;24.70;15.45;;;;;;;-1.39;100.00;93322.34;5069482;28;20056;-71
2023/01/30 00:53:08;;;;;;;21.52;13.40;;;;;;;-1.52;100.00;93329.38;5068871;28;20052;-71
2023/01/30 00:55:35;;;;;;;23.83;15.20;;;;;;;-1.38;100.00;93323.91;5069203;28;20045;-71
2023/01/30 00:58:02;;;;;;;22.48;13.10;;;;;;;-1.27;100.00;93322.19;5068196;28;20045;-70
2023/01/30 01:00:29;;;;;;;20.65;13.57;;;;;;;-1.23;100.00;93321.00;5068764;28;20777;-71
2023/01/30 01:02:55;;;;;;;22.45;14.43;;;;;;;-1.28;100.00;93318.09;5068954;28;20045;-71
2023/01/30 01:05:23;;;;;;;23.65;13.90;;;;;;;-1.34;100.00;93321.97;5069050;28;20118;-71
2023/01/30 01:07:50;;;;;;;24.85;14.30;;;;;;;-1.59;100.00;93316.50;5068781;28;20094;-71
2023/01/30 01:10:17;;;;;;;20.90;12.68;;;;;;;-1.91;100.00;93315.84;5068089;28;20048;-71
2023/01/30 01:12:44;;;;;;;19.27;12.27;;;;;;;-2.20;100.00;93314.06;5068624;28;20094;-70
2023/01/30 01:15:11;;;;;;;22.35;12.88;;;;;;;-2.11;100.00;93314.22;5068768;28;20413;-71
2023/01/30 01:17:38;;;;;;;22.20;12.95;;;;;;;-2.32;100.00;93310.06;5068398;28;20045;-70
2023/01/30 01:20:06;;;;;;;19.25;12.95;;;;;;;-2.47;100.00;93300.34;5068834;28;20044;-70
2023/01/30 01:22:34;;;;;;;21.50;13.02;;;;;;;-2.59;100.00;93303.91;5068530;28;20044;-71
2023/01/30 01:25:01;;;;;;;18.27;12.93;;;;;;;-2.65;100.00;93297.66;5068491;28;20041;-70
2023/01/30 01:27:29;;;;;;;23.55;13.90;;;;;;;-2.49;100.00;93292.16;5068269;28;20488;-70
2023/01/30 01:29:56;;;;;;;25.65;15.02;;;;;;;-2.30;100.00;93285.56;5068370;28;20041;-71
2023/01/30 01:32:23;;;;;;;20.67;13.05;;;;;;;-2.10;100.00;93283.06;5068118;28;20086;-71
2023/01/30 01:34:50;;;;;;;21.52;13.00;;;;;;;-2.12;100.00;93289.97;5068151;28;20041;-71
2023/01/30 01:37:16;;;;;;;18.58;11.00;;;;;;;-2.40;100.00;93288.06;5068099;28;20049;-71
2023/01/30 01:42:35;;;;;;;16.77;11.07;;;;;;;-2.67;100.00;93286.13;5068222;28;20047;-71
2023/01/30 01:45:13;;;;;;;30.88;15.30;;;;;;;-2.43;100.00;93283.28;5068169;28;20045;-71
2023/01/30 01:47:43;;;;;;;18.88;12.73;;;;;;;-2.59;100.00;93269.47;5068214;28;20399;-71
2023/01/30 01:50:16;;;;;;;20.95;14.25;;;;;;;-2.32;100.00;93294.97;5068283;28;20451;-71
2023/01/30 01:52:43;;;;;;;19.73;12.43;;;;;;;-2.46;100.00;93250.84;5068344;28;20041;-71
2023/01/30 01:55:12;;;;;;;24.02;13.63;;;;;;;-2.15;100.00;93288.50;5067964;28;20098;-71
2023/01/30 01:57:45;;;;;;;21.50;13.60;;;;;;;-2.04;100.00;93278.31;5068019;28;20098;-71
2023/01/30 02:00:13;;;;;;;25.65;15.30;;;;;;;-1.82;100.00;93270.63;5068106;28;20086;-71
2023/01/30 02:02:43;;;;;;;24.25;14.15;;;;;;;-1.73;100.00;93274.13;5067889;28;20556;-71
2023/01/30 02:05:11;;;;;;;20.20;11.95;;;;;;;-2.06;100.00;93272.63;5067963;28;20044;-71
2023/01/30 02:07:44;;;;;;;20.50;12.82;;;;;;;-2.22;100.00;93274.88;5062647;28;20091;-71
2023/01/30 02:10:17;;;;;;;18.90;12.75;;;;;;;-2.59;100.00;93261.91;5067698;28;20037;-71
2023/01/30 02:12:45;;;;;;;20.48;12.93;;;;;;;-2.87;100.00;93268.47;5069483;28;20044;-71
2023/01/30 02:15:12;;;;;;;22.85;13.40;;;;;;;-2.88;100.00;93270.16;5071720;28;20443;-71
2023/01/30 02:17:38;;;;;;;25.30;14.05;;;;;;;-2.79;100.00;93267.84;5071660;28;20094;-70
2023/01/30 02:20:16;;;;;;;23.55;13.52;;;;;;;-2.65;100.00;93266.69;5071506;28;20086;-70
2023/01/30 02:23:24;;;;;;;20.35;12.25;;;;;;;-2.80;100.00;93274.56;5071254;28;20045;-70
2023/01/30 02:26:22;;;;;;;23.30;14.15;;;;;;;-2.81;100.00;93270.47;5070205;28;20056;-70
2023/01/30 02:29:15;;;;;;;22.27;14.70;;;;;;;-2.80;100.00;93266.22;5071330;28;20044;-70
2023/01/30 02:31:49;;;;;;;23.23;14.77;;;;;;;-2.61;100.00;93270.50;5070924;28;20041;-70
2023/01/30 02:34:30;;;;;;;21.20;13.48;;;;;;;-2.34;100.00;93261.59;5071113;28;20044;-70
2023/01/30 02:37:10;;;;;;;24.65;15.48;;;;;;;-2.13;100.00;93258.97;5071103;28;20098;-70
2023/01/30 02:39:48;;;;;;;22.33;13.85;;;;;;;-2.04;100.00;93262.44;5071100;28;20098;-70
2023/01/30 02:42:24;;;;;;;19.42;11.85;;;;;;;-2.12;100.00;93269.84;5071320;28;20101;-70
2023/01/30 02:45:00;;;;;;;18.70;12.02;;;;;;;-1.98;100.00;93268.66;5071095;28;20193;-70
2023/01/30 02:47:34;;;;;;;22.02;13.55;;;;;;;-1.83;100.00;93261.50;5071267;28;20447;-70
2023/01/30 02:50:04;;;;;;;19.98;12.43;;;;;;;-1.71;100.00;93260.44;5071092;28;20048;-70
2023/01/30 02:52:33;;;;;;;17.95;12.13;;;;;;;-1.89;100.00;93265.34;5071198;28;20055;-69
2023/01/30 02:55:01;;;;;;;19.25;11.80;;;;;;;-2.04;100.00;93263.22;5070889;28;20040;-69
2023/01/30 02:57:28;;;;;;;20.27;13.15;;;;;;;-2.03;100.00;93262.28;5071023;28;20459;-69
2023/01/30 02:59:58;;;;;;;18.17;12.43;;;;;;;-1.99;100.00;93267.06;5070394;28;20102;-69
2023/01/30 03:03:09;;;;;;;20.60;12.20;;;;;;;-2.02;100.00;93266.41;5070695;28;20049;-70
2023/01/30 03:06:00;;;;;;;21.98;13.35;;;;;;;-2.04;100.00;93270.78;5068076;28;20036;-70
2023/01/30 03:08:34;;;;;;;18.05;12.55;;;;;;;-2.03;100.00;93271.56;5070757;28;20382;-70
2023/01/30 03:11:04;;;;;;;18.65;11.50;;;;;;;-2.30;100.00;93265.44;5070557;28;20103;-70
2023/01/30 03:13:44;;;;;;;20.20;12.25;;;;;;;-2.50;100.00;93272.16;5070508;28;20284;-70
2023/01/30 03:16:15;;;;;;;19.63;12.85;;;;;;;-2.52;100.00;93264.72;5070601;28;20044;-70
2023/01/30 03:18:42;;;;;;;37.90;27.15;;;;;;;-2.72;100.00;93256.34;5070056;28;20045;-70
2023/01/30 03:21:11;;;;;;;23.83;17.23;;;;;;;-2.64;100.00;93256.47;5070221;28;20066;-69
2023/01/30 03:23:38;;;;;;;17.58;11.52;;;;;;;-2.59;100.00;93249.34;5064275;28;20552;-69
2023/01/30 03:26:08;;;;;;;18.75;11.80;;;;;;;-2.88;100.00;93234.97;5070333;28;20481;-69
2023/01/30 03:28:35;;;;;;;24.38;14.45;;;;;;;-2.78;100.00;93246.78;5069902;28;20044;-69
2023/01/30 03:31:02;;;;;;;51.60;25.23;;;;;;;-2.76;100.00;93240.72;5070031;28;20041;-69
2023/01/30 03:33:28;;;;;;;52.45;26.02;;;;;;;-2.63;100.00;93237.97;5069845;28;20078;-70
2023/01/30 03:35:55;;;;;;;19.67;12.70;;;;;;;-2.53;100.00;93239.69;5070061;28;20090;-70
2023/01/30 03:38:23;;;;;;;62.25;28.30;;;;;;;-2.51;100.00;93230.31;5069961;28;20097;-70
2023/01/30 03:40:50;;;;;;;25.35;14.40;;;;;;;-2.48;100.00;93228.34;5069782;28;20045;-69
2023/01/30 03:43:17;;;;;;;17.88;10.75;;;;;;;-2.67;100.00;93230.78;5069901;28;20078;-70
2023/01/30 03:45:43;;;;;;;18.42;11.45;;;;;;;-2.61;100.00;93228.56;5069510;28;20040;-70
2023/01/30 03:48:10;;;;;;;17.35;11.75;;;;;;;-2.65;100.00;93223.94;5069642;28;20574;-70
2023/01/30 03:50:37;;;;;;;20.88;12.50;;;;;;;-2.54;100.00;93231.38;5069739;28;20041;-69
2023/01/30 03:53:03;;;;;;;111.10;46.40;;;;;;;-2.54;100.00;93231.38;5069594;28;20118;-70
2023/01/30 03:55:32;;;;;;;63.00;29.23;;;;;;;-2.56;100.00;93226.47;5069740;28;20040;-69
2023/01/30 03:57:58;;;;;;;95.75;39.63;;;;;;;-2.77;100.00;93225.75;5069619;28;20052;-69
2023/01/30 04:00:25;;;;;;;105.55;43.42;;;;;;;-2.85;100.00;93222.16;5069947;28;20480;-70
2023/01/30 04:02:53;;;;;;;24.00;13.63;;;;;;;-2.89;100.00;93220.00;5069379;28;20481;-70
2023/01/30 04:05:20;;;;;;;34.05;17.40;;;;;;;-2.87;100.00;93215.66;5069394;28;20488;-70
2023/01/30 04:07:47;;;;;;;23.00;13.27;;;;;;;-2.78;100.00;93216.63;5069552;28;20186;-70
2023/01/30 04:10:14;;;;;;;29.83;14.98;;;;;;;-2.94;100.00;93202.81;5069059;28;20554;-70
2023/01/30 04:12:42;;;;;;;73.65;32.45;;;;;;;-3.02;100.00;93220.25;5069299;28;20059;-70
2023/01/30 04:15:10;;;;;;;19.27;12.15;;;;;;;-3.09;100.00;93209.91;5069371;28;20048;-69
2023/01/30 04:17:37;;;;;;;20.50;12.30;;;;;;;-2.95;100.00;93217.09;5069038;28;20172;-70
2023/01/30 04:20:04;;;;;;;18.90;11.23;;;;;;;-2.92;100.00;93210.22;5068768;28;20040;-70
2023/01/30 04:22:31;;;;;;;22.90;13.68;;;;;;;-2.78;100.00;93207.34;5069240;28;20044;-70
2023/01/30 04:24:58;;;;;;;18.75;12.65;;;;;;;-2.61;100.00;93220.22;5063600;28;20098;-70
2023/01/30 04:27:25;;;;;;;24.25;14.70;;;;;;;-2.48;100.00;93218.28;5069181;28;20756;-70
2023/01/30 04:29:53;;;;;;;65.93;31.75;;;;;;;-2.77;100.00;93220.72;5069187;28;20048;-70
2023/01/30 04:32:20;;;;;;;83.18;36.95;;;;;;;-3.02;100.00;93212.72;5063870;28;20447;-69
2023/01/30 04:34:46;;;;;;;47.30;24.38;;;;;;;-3.26;100.00;93216.31;5068143;28;20048;-69
2023/01/30 04:37:13;;;;;;;55.22;27.85;;;;;;;-3.35;100.00;93207.81;5068595;28;20052;-70
2023/01/30 04:39:40;;;;;;;25.17;14.25;;;;;;;-3.30;100.00;93205.72;5068699;28;20462;-70
2023/01/30 04:42:06;;;;;;;21.27;12.93;;;;;;;-3.27;100.00;93215.53;5068563;28;20075;-70
2023/01/30 04:44:33;;;;;;;20.20;12.23;;;;;;;-3.27;100.00;93204.66;5065790;28;20501;-70
2023/01/30 04:47:01;;;;;;;23.05;13.57;;;;;;;-3.23;100.00;93194.22;5068542;28;20536;-70
2023/01/30 04:49:28;;;;;;;22.02;13.07;;;;;;;-3.28;100.00;93196.31;5068564;28;20082;-70
2023/01/30 04:51:55;;;;;;;23.52;13.05;;;;;;;-3.21;100.00;93199.13;5068379;28;20036;-69
2023/01/30 04:54:21;;;;;;;21.75;14.00;;;;;;;-3.13;100.00;93193.47;5068326;28;20463;-69
2023/01/30 04:56:48;;;;;;;31.17;18.38;;;;;;;-3.19;100.00;93191.47;5068827;28;20044;-69
2023/01/30 04:59:15;;;;;;;25.60;15.63;;;;;;;-3.06;100.00;93197.06;5068625;28;20098;-69
2023/01/30 05:01:42;;;;;;;25.17;15.30;;;;;;;-2.82;100.00;93201.00;5068236;28;20040;-70
2023/01/30 05:04:10;;;;;;;25.50;15.57;;;;;;;-2.79;100.00;93190.66;5068220;28;20040;-70
2023/01/30 05:06:37;;;;;;;26.55;15.40;;;;;;;-2.62;100.00;93189.25;5068537;28;20455;-70
2023/01/30 05:09:04;;;;;;;25.65;15.73;;;;;;;-2.68;100.00;93194.81;5068367;28;20098;-70
2023/01/30 05:11:32;;;;;;;24.33;13.82;;;;;;;-2.60;100.00;93186.63;5068617;28;20048;-70
2023/01/30 05:13:59;;;;;;;26.58;16.65;;;;;;;-2.62;100.00;93189.25;5063227;28;20040;-70
2023/01/30 05:16:25;;;;;;;24.27;15.52;;;;;;;-2.51;100.00;93182.53;5068302;28;20481;-70
2023/01/30 05:18:52;;;;;;;26.33;15.15;;;;;;;-2.57;100.00;93178.81;5068314;28;20044;-70
2023/01/30 05:21:24;;;;;;;26.15;15.90;;;;;;;-2.52;100.00;93186.75;5068457;28;20040;-69
2023/01/30 05:23:52;;;;;;;25.15;16.35;;;;;;;-2.58;100.00;93182.25;5068539;28;20136;-69
2023/01/30 05:26:19;;;;;;;29.90;18.83;;;;;;;-2.42;100.00;93182.53;5063117;28;20044;-69
2023/01/30 05:28:51;;;;;;;26.23;16.35;;;;;;;-2.57;100.00;93183.84;5068117;28;20551;-69
2023/01/30 05:31:18;;;;;;;25.85;15.85;;;;;;;-2.43;100.00;93191.00;5068351;28;20045;-70
2023/01/30 05:33:47;;;;;;;27.98;16.55;;;;;;;-2.36;100.00;93203.84;5068220;28;20041;-70
2023/01/30 05:36:16;;;;;;;29.70;16.88;;;;;;;-2.35;100.00;93205.47;5068381;28;20118;-70
2023/01/30 05:38:45;;;;;;;29.77;16.27;;;;;;;-2.44;100.00;93201.19;5067923;28;20508;-70
2023/01/30 05:41:12;;;;;;;28.50;16.98;;;;;;;-2.32;100.00;93201.88;5068252;28;20049;-70
2023/01/30 05:43:39;;;;;;;27.33;17.02;;;;;;;-2.47;100.00;93197.22;5068295;28;20052;-70
2023/01/30 05:46:06;;;;;;;29.15;17.23;;;;;;;-2.41;100.00;93198.41;5069018;28;20099;-70
2023/01/30 05:48:33;;;;;;;27.50;16.40;;;;;;;-2.69;100.00;93196.53;5071807;28;20048;-70
2023/01/30 05:51:00;;;;;;;33.40;18.27;;;;;;;-2.73;100.00;93205.25;5072089;28;20522;-69
2023/01/30 05:53:30;;;;;;;33.80;19.58;;;;;;;-2.72;100.00;93201.03;5071868;28;20037;-70
2023/01/30 05:55:59;;;;;;;34.03;20.33;;;;;;;-2.61;100.00;93200.91;5072005;28;20239;-70
2023/01/30 05:58:27;;;;;;;37.67;20.45;;;;;;;-2.58;100.00;93202.38;5071785;28;20053;-70
2023/01/30 06:00:54;;;;;;;35.90;20.60;;;;;;;-2.71;100.00;93203.41;5071889;28;20463;-69
2023/01/30 06:03:21;;;;;;;31.92;18.23;;;;;;;-2.94;100.00;93190.25;5071659;28;20045;-69
2023/01/30 06:05:48;;;;;;;32.53;19.50;;;;;;;-2.89;100.00;93198.19;5071785;28;20044;-70
2023/01/30 06:08:14;;;;;;;33.63;17.73;;;;;;;-2.87;100.00;93201.38;5071710;28;20041;-70
2023/01/30 06:10:41;;;;;;;34.00;19.50;;;;;;;-2.83;100.00;93197.69;5071581;28;20052;-69
2023/01/30 06:13:09;;;;;;;31.38;17.92;;;;;;;-2.98;100.00;93201.47;5071458;28;20099;-70
2023/01/30 06:15:36;;;;;;;30.85;17.50;;;;;;;-3.03;100.00;93191.00;5071678;28;20409;-70
2023/01/30 06:18:03;;;;;;;32.58;19.17;;;;;;;-3.07;100.00;93187.16;5064347;28;20085;-70
2023/01/30 06:20:30;;;;;;;34.85;19.95;;;;;;;-3.13;100.00;93191.78;5069606;28;20040;-70
2023/01/30 06:22:57;;;;;;;36.97;20.83;;;;;;;-3.00;100.00;93185.72;5071358;28;20040;-70
2023/01/30 06:25:23;;;;;;;32.63;19.30;;;;;;;-2.92;100.00;93188.38;5071328;28;20090;-69
2023/01/30 06:27:50;;;;;;;35.25;20.33;;;;;;;-3.10;100.00;93150.53;5071053;28;20094;-70
2023/01/30 06:30:18;;;;;;;33.65;19.35;;;;;;;-3.08;100.00;93181.34;5071159;28;20040;-70
2023/01/30 06:32:49;;;;;;;35.05;20.55;;;;;;;-3.11;100.00;93179.06;5071232;28;20048;-69
2023/01/30 06:35:16;;;;;;;32.50;17.25;;;;;;;-2.99;100.00;93179.78;5071038;28;20084;-69
2023/01/30 06:37:44;;;;;;;32.10;19.02;;;;;;;-2.83;100.00;93186.81;5070864;28;20095;-69
2023/01/30 06:40:12;;;;;;;31.25;18.38;;;;;;;-3.05;100.00;93190.34;5070744;28;20087;-69
2023/01/30 06:42:39;;;;;;;32.67;19.63;;;;;;;-2.85;100.00;93186.16;5065796;28;20041;-69
2023/01/30 06:45:07;;;;;;;36.60;22.08;;;;;;;-2.63;100.00;93187.69;5071090;28;20098;-69
2023/01/30 06:47:35;;;;;;;35.20;20.88;;;;;;;-3.04;100.00;93186.91;5070828;28;20048;-70
2023/01/30 06:50:01;;;;;;;35.22;18.95;;;;;;;-3.17;100.00;93185.41;5070966;28;20040;-70
2023/01/30 06:52:28;;;;;;;30.35;17.92;;;;;;;-3.36;100.00;93191.16;5070940;28;20037;-69
2023/01/30 06:54:55;;;;;;;33.53;18.95;;;;;;;-3.25;100.00;93191.06;5070720;28;20523;-70
2023/01/30 06:57:21;;;;;;;32.38;19.40;;;;;;;-3.32;100.00;93192.50;5069709;28;20094;-70
2023/01/30 06:59:48;;;;;;;35.38;23.48;;;;;;;-3.06;100.00;93192.03;5070847;28;20090;-69
2023/01/30 07:02:15;;;;;;;36.13;20.80;;;;;;;-3.02;100.00;93197.63;5070276;28;20492;-70
2023/01/30 07:04:43;;;;;;;34.80;21.38;;;;;;;-3.19;100.00;93201.53;5070511;28;20110;-70
2023/01/30 07:07:09;;;;;;;40.08;27.42;;;;;;;-3.08;100.00;93203.94;5070335;28;20044;-70
2023/01/30 07:09:36;;;;;;;37.10;22.20;;;;;;;-3.00;100.00;93198.28;5070296;28;20489;-70
2023/01/30 07:12:03;;;;;;;39.42;23.08;;;;;;;-2.86;100.00;93205.47;5070301;28;20093;-70
2023/01/30 07:14:30;;;;;;;41.65;23.88;;;;;;;-2.75;100.00;93204.59;5070541;28;20186;-69
2023/01/30 07:16:56;;;;;;;36.67;20.50;;;;;;;-2.88;100.00;93201.50;5070403;28;20480;-69
2023/01/30 07:19:23;;;;;;;35.78;21.30;;;;;;;-2.81;100.00;93202.59;5068771;28;20098;-69
2023/01/30 07:21:51;;;;;;;35.70;21.25;;;;;;;-2.69;100.00;93209.09;5059560;28;20056;-69
2023/01/30 07:24:18;;;;;;;38.55;23.30;;;;;;;-2.91;100.00;93176.63;5070819;28;20045;-70
2023/01/30 07:26:47;;;;;;;33.42;19.58;;;;;;;-2.49;100.00;93213.38;5070633;28;20041;-70
2023/01/30 07:29:14;;;;;;;30.98;18.38;;;;;;;-2.50;100.00;93221.84;5070810;28;20121;-69
2023/01/30 07:31:41;;;;;;;35.92;22.20;;;;;;;-2.46;100.00;93213.91;5056726;28;20083;-70
2023/01/30 07:34:07;;;;;;;33.17;19.45;;;;;;;-2.84;100.00;93216.22;5070405;28;20044;-70
2023/01/30 07:36:34;;;;;;;34.60;20.42;;;;;;;-2.69;100.00;93215.84;5070113;28;20044;-70
2023/01/30 07:39:02;;;;;;;43.78;25.95;;;;;;;-2.65;100.00;93218.91;5070135;28;20083;-69
2023/01/30 07:41:29;;;;;;;37.65;23.08;;;;;;;-2.48;100.00;93220.00;5070220;28;20089;-69
2023/01/30 07:43:55;;;;;;;34.90;20.75;;;;;;;-2.53;100.00;93232.97;5061865;28;20045;-69
2023/01/30 07:46:22;;;;;;;39.08;22.77;;;;;;;-2.44;100.00;93229.66;5065824;28;20048;-69
2023/01/30 07:48:49;;;;;;;34.47;20.50;;;;;;;-2.46;100.00;93211.38;5070046;28;20053;-69
2023/01/30 07:51:16;;;;;;;39.47;21.73;;;;;;;-2.18;100.00;93225.88;5070170;28;20455;-69
2023/01/30 07:53:42;;;;;;;33.75;20.23;;;;;;;-2.38;100.00;93230.88;5070178;28;20094;-69
2023/01/30 07:56:13;;;;;;;31.48;19.42;;;;;;;-2.23;100.00;93225.47;5069813;28;20098;-69
2023/01/30 07:58:39;;;;;;;31.17;19.30;;;;;;;-2.61;100.00;93226.06;5069981;28;20386;-69
2023/01/30 08:01:06;;;;;;;30.05;17.75;;;;;;;-2.89;100.00;93227.56;5069880;28;20485;-69
2023/01/30 08:03:33;;;;;;;31.52;19.42;;;;;;;-3.01;100.00;93219.31;5070119;28;20040;-69
2023/01/30 08:05:59;;;;;;;31.65;19.15;;;;;;;-3.13;100.00;93201.03;5069617;28;20094;-69
2023/01/30 08:08:26;;;;;;;37.22;23.52;;;;;;;-2.98;100.00;93209.81;5069770;28;20052;-69
2023/01/30 08:10:53;;;;;;;37.75;23.42;;;;;;;-2.83;100.00;93201.91;5069429;28;20052;-69
2023/01/30 08:13:21;;;;;;;34.95;21.23;;;;;;;-2.88;100.00;93199.78;5069793;28;20386;-69
2023/01/30 08:15:47;;;;;;;32.78;21.02;;;;;;;-2.74;100.00;93208.69;5055844;28;20115;-69
2023/01/30 08:18:14;;;;;;;33.38;20.20;;;;;;;-2.85;100.00;93202.06;5069730;28;20474;-69
2023/01/30 08:20:42;;;;;;;29.02;17.80;;;;;;;-2.66;100.00;93199.69;5069442;28;20153;-69
2023/01/30 08:23:09;;;;;;;25.80;16.08;;;;;;;-2.65;100.00;93199.56;5069800;28;20451;-69
2023/01/30 08:25:36;;;;;;;32.20;18.63;;;;;;;-2.60;100.00;93202.50;5069339;28;20049;-69
2023/01/30 08:28:04;;;;;;;28.65;18.55;;;;;;;-2.42;100.00;93184.25;5068936;28;20500;-69
2023/01/30 08:30:32;;;;;;;29.77;18.15;;;;;;;-2.06;100.00;93198.84;5068866;28;20493;-69
2023/01/30 08:32:59;;;;;;;33.63;17.42;;;;;;;-1.85;100.00;93196.16;5069304;28;20049;-69
2023/01/30 08:35:26;;;;;;;24.83;15.18;;;;;;;-1.70;100.00;93198.28;5068871;28;20057;-69
2023/01/30 08:37:53;;;;;;;29.20;15.95;;;;;;;-1.67;100.00;93198.78;5069513;28;20130;-69
2023/01/30 08:40:19;;;;;;;36.83;19.40;;;;;;;-1.76;100.00;93202.13;5069704;28;20056;-69
2023/01/30 08:42:46;;;;;;;26.42;14.48;;;;;;;-1.67;100.00;93198.03;5069295;28;20102;-70
2023/01/30 08:45:13;;;;;;;31.95;16.88;;;;;;;-1.85;100.00;93200.41;5055812;28;20090;-70
2023/01/30 08:47:41;;;;;;;35.20;18.33;;;;;;;-1.89;100.00;93192.34;5069662;28;20048;-69
2023/01/30 08:50:09;;;;;;;23.83;13.55;;;;;;;-2.09;100.00;93199.13;5069090;28;20045;-69
2023/01/30 08:52:36;;;;;;;23.42;15.07;;;;;;;-2.20;100.00;93195.00;5068957;28;20558;-69
2023/01/30 08:55:02;;;;;;;26.33;15.63;;;;;;;-2.21;100.00;93188.38;5068958;28;20106;-69
2023/01/30 08:57:31;;;;;;;24.90;14.60;;;;;;;-2.08;100.00;93186.38;5068677;28;20048;-69
2023/01/30 08:59:58;;;;;;;26.52;15.48;;;;;;;-2.09;100.00;93179.75;5069254;28;20053;-69
2023/01/30 09:02:24;;;;;;;26.83;15.38;;;;;;;-2.10;100.00;93182.41;5068380;28;20070;-69
2023/01/30 09:04:52;;;;;;;25.42;14.30;;;;;;;-1.87;100.00;93175.38;5068802;28;20094;-69
2023/01/30 09:07:19;;;;;;;28.33;15.30;;;;;;;-1.89;100.00;93170.47;5068693;28;20041;-69
2023/01/30 09:09:47;;;;;;;31.67;15.18;;;;;;;-1.63;100.00;93171.59;5069022;28;20051;-69
2023/01/30 09:12:14;;;;;;;28.67;16.77;;;;;;;-1.52;100.00;93168.16;5068821;28;20048;-69
2023/01/30 09:14:40;;;;;;;37.70;17.70;;;;;;;-1.30;100.00;93163.72;5068668;28;20558;-69
2023/01/30 09:17:07;;;;;;;21.73;14.20;;;;;;;-1.25;100.00;93171.66;5068796;28;20447;-70
2023/01/30 09:19:35;;;;;;;28.35;15.43;;;;;;;-1.13;100.00;93175.59;5069333;28;20086;-69
2023/01/30 09:22:04;;;;;;;29.15;16.35;;;;;;;-0.96;100.00;93175.78;5073601;28;20056;-69
2023/01/30 09:24:30;;;;;;;26.85;16.42;;;;;;;-0.94;100.00;93173.91;5075502;28;20086;-69
2023/01/30 09:26:57;;;;;;;30.73;17.67;;;;;;;-0.81;100.00;93176.09;5075618;28;20056;-70
2023/01/30 09:29:24;;;;;;;29.67;17.42;;;;;;;-0.74;100.00;93174.59;5075133;28;20110;-69
2023/01/30 09:31:51;;;;;;;36.08;20.35;;;;;;;-0.62;100.00;93177.72;5074915;28;20505;-69
2023/01/30 09:34:18;;;;;;;40.45;22.83;;;;;;;-0.57;100.00;93177.28;5075541;28;20045;-70
2023/01/30 09:36:44;;;;;;;43.65;26.98;;;;;;;-0.54;100.00;93171.97;5071369;28;20129;-70
2023/01/30 09:39:12;;;;;;;41.60;25.30;;;;;;;-0.49;100.00;93166.47;5073256;28;20063;-70
2023/01/30 09:41:57;;;;;;;32.70;20.63;;;;;;;-0.55;100.00;93181.25;5075029;28;20542;-69
2023/01/30 09:44:57;;;;;;;27.55;16.75;;;;;;;-0.61;100.00;93176.00;5053511;28;20052;-69
2023/01/30 09:47:38;;;;;;;21.38;14.45;;;;;;;-0.72;100.00;93170.22;5075128;28;20489;-69
2023/01/30 09:50:22;;;;;;;26.25;15.65;;;;;;;-0.82;100.00;93162.69;5074478;28;20048;-70
2023/01/30 09:52:56;;;;;;;32.05;14.50;;;;;;;-1.03;100.00;93154.59;5075430;28;20052;-70
2023/01/30 09:55:28;;;;;;;26.40;14.82;;;;;;;-1.19;100.00;93155.97;5074358;28;20098;-70
2023/01/30 09:57:57;;;;;;;24.52;14.35;;;;;;;-1.49;100.00;93140.97;5074726;28;20061;-70
2023/01/30 10:00:28;;;;;;;24.73;15.65;;;;;;;-1.29;100.00;93142.63;5074951;28;20040;-69
2023/01/30 10:03:02;;;;;;;25.98;16.35;;;;;;;-1.17;100.00;93138.97;5074949;28;20486;-70
2023/01/30 10:05:41;;;;;;;27.10;15.32;;;;;;;-0.96;100.00;93136.22;5074441;28;20044;-70
2023/01/30 10:08:29;;;;;;;25.50;15.30;;;;;;;-0.83;100.00;93138.41;5075304;28;20417;-69
2023/01/30 10:11:05;;;;;;;28.48;15.68;;;;;;;-1.06;100.00;93135.50;5074963;28;20040;-69
2023/01/30 10:13:48;;;;;;;28.45;16.13;;;;;;;-0.93;100.00;93129.31;5075193;28;20452;-70
2023/01/30 10:16:20;;;;;;;26.70;15.48;;;;;;;-1.40;100.00;93125.94;5075234;28;20133;-69
2023/01/30 10:19:00;;;;;;;25.52;15.52;;;;;;;-1.61;100.00;93119.38;5075357;28;20420;-70
2023/01/30 10:21:36;;;;;;;23.17;14.48;;;;;;;-1.74;100.00;93119.69;5074870;28;20044;-69
2023/01/30 10:24:23;;;;;;;30.15;18.80;;;;;;;-1.85;100.00;93108.03;5071580;28;20049;-70
2023/01/30 10:26:51;;;;;;;26.15;16.40;;;;;;;-1.72;100.00;93104.44;5072848;28;20048;-70
2023/01/30 10:29:23;;;;;;;24.40;15.15;;;;;;;-1.65;100.00;93093.69;5074196;28;20048;-70
2023/01/30 10:31:54;;;;;;;27.27;16.27;;;;;;;-1.70;100.00;93084.94;5073732;28;20044;-70
2023/01/30 10:34:25;;;;;;;23.85;14.88;;;;;;;-1.42;100.00;93085.78;5071029;28;20049;-70
2023/01/30 10:36:57;;;;;;;25.13;15.18;;;;;;;-1.71;100.00;93080.84;5071778;28;20048;-70
2023/01/30 10:39:33;;;;;;;26.75;15.07;;;;;;;-1.54;100.00;93076.78;5071115;28;20329;-70
2023/01/30 10:42:09;;;;;;;28.27;16.15;;;;;;;-1.31;100.00;93071.41;5071469;28;20099;-70
2023/01/30 10:44:36;;;;;;;28.90;16.75;;;;;;;-1.11;100.00;93057.75;5071349;28;20049;-70
2023/01/30 10:47:29;;;;;;;25.35;15.18;;;;;;;-1.03;100.00;93049.47;5071767;28;20052;-70
2023/01/30 10:50:02;;;;;;;24.75;14.90;;;;;;;-0.90;100.00;93049.13;5070838;28;20136;-70
2023/01/30 10:52:36;;;;;;;22.17;13.52;;;;;;;-0.89;100.00;93043.16;5071366;28;20567;-69
2023/01/30 10:55:14;;;;;;;23.55;13.32;;;;;;;-1.34;100.00;93044.75;5071507;28;20374;-70
2023/01/30 10:57:52;;;;;;;22.48;13.98;;;;;;;-1.16;100.00;93038.97;5070958;28;20472;-69
2023/01/30 11:00:27;;;;;;;27.25;15.38;;;;;;;-0.99;100.00;93028.09;5071474;28;20044;-70
2023/01/30 11:03:17;;;;;;;36.03;19.67;;;;;;;-0.78;100.00;93021.16;5071024;28;20494;-70
2023/01/30 11:05:48;;;;;;;28.65;17.55;;;;;;;-0.71;100.00;93022.97;5070835;28;20085;-70
2023/01/30 11:08:21;;;;;;;28.20;16.40;;;;;;;-0.60;100.00;93014.38;5071304;28;20105;-69
2023/01/30 11:10:49;;;;;;;27.88;19.27;;;;;;;-0.45;100.00;93012.13;5071076;28;20094;-70
2023/01/30 11:13:19;;;;;;;23.95;14.77;;;;;;;-0.79;100.00;92997.66;5071169;28;20090;-69
2023/01/30 11:15:49;;;;;;;24.95;14.65;;;;;;;-0.60;100.00;93006.03;5070849;28;20057;-70
2023/01/30 11:18:17;;;;;;;27.05;16.42;;;;;;;-0.47;100.00;93005.66;5070681;28;20048;-70
2023/01/30 11:20:46;;;;;;;31.77;18.55;;;;;;;-0.32;100.00;92995.81;5070286;28;20056;-70
2023/01/30 11:23:26;;;;;;;30.35;18.17;;;;;;;-0.19;100.00;92996.19;5070891;28;20121;-70
2023/01/30 11:25:56;;;;;;;29.52;17.27;;;;;;;-0.11;100.00;92992.94;5045516;28;20052;-70
2023/01/30 11:28:26;;;;;;;33.25;21.35;;;;;;;-0.04;100.00;92983.81;5069394;28;20054;-70